sensor_id;sensor_type;location;lat;lon;timestamp;pressure;altitude;pressure_sealevel;temperature;humidity
69737;BME280;64476;55.004;73.342;2023-02-04T00:01:39;101769.59;;;-4.44;46.50
69737;BME280;64476;55.004;73.342;2023-02-04T00:04:41;101741.66;;;-4.62;46.17
69737;BME280;64476;55.004;73.342;2023-02-04T00:07:42;101816.25;;;-4.29;46.36
69737;BME280;64476;55.004;73.342;2023-02-04T00:10:44;101747.66;;;-4.71;46.42
69737;BME280;64476;55.004;73.342;2023-02-04T00:13:47;101820.50;;;-4.31;46.52
69737;BME280;64476;55.004;73.342;2023-02-04T00:16:54;101775.59;;;-4.57;46.07
69737;BME280;64476;55.004;73.342;2023-02-04T00:20:00;101777.31;;;-4.57;46.12
69737;BME280;64476;55.004;73.342;2023-02-04T00:23:07;101805.25;;;-4.38;46.14
69737;BME280;64476;55.004;73.342;2023-02-04T00:26:09;101815.38;;;-4.28;45.99
69737;BME280;64476;55.004;73.342;2023-02-04T00:29:11;101769.63;;;-4.48;46.04
69737;BME280;64476;55.004;73.342;2023-02-04T00:32:24;101817.00;;;-4.17;46.11
69737;BME280;64476;55.004;73.342;2023-02-04T00:35:57;101816.19;;;-4.19;46.38
69737;BME280;64476;55.004;73.342;2023-02-04T00:38:59;101817.00;;;-4.12;46.66
69737;BME280;64476;55.004;73.342;2023-02-04T00:42:00;101808.44;;;-4.06;46.21
69737;BME280;64476;55.004;73.342;2023-02-04T00:45:02;101790.66;;;-4.14;46.34
69737;BME280;64476;55.004;73.342;2023-02-04T00:48:08;101786.41;;;-4.12;46.30
69737;BME280;64476;55.004;73.342;2023-02-04T00:51:20;101796.63;;;-4.15;46.51
69737;BME280;64476;55.004;73.342;2023-02-04T00:54:32;101747.53;;;-4.51;46.38
69737;BME280;64476;55.004;73.342;2023-02-04T00:57:39;101796.72;;;-4.32;46.56
69737;BME280;64476;55.004;73.342;2023-02-04T01:00:41;101751.84;;;-4.56;46.56
69737;BME280;64476;55.004;73.342;2023-02-04T01:03:44;101794.13;;;-4.26;46.40
69737;BME280;64476;55.004;73.342;2023-02-04T01:06:55;101806.88;;;-4.23;46.59
69737;BME280;64476;55.004;73.342;2023-02-04T01:09:57;101811.16;;;-4.31;46.77
69737;BME280;64476;55.004;73.342;2023-02-04T01:13:03;101819.66;;;-4.35;46.82
69737;BME280;64476;55.004;73.342;2023-02-04T01:16:05;101799.34;;;-4.47;47.02
69737;BME280;64476;55.004;73.342;2023-02-04T01:19:09;101771.44;;;-4.69;46.93
69737;BME280;64476;55.004;73.342;2023-02-04T01:22:20;101808.69;;;-4.46;47.55
69737;BME280;64476;55.004;73.342;2023-02-04T01:25:22;101810.41;;;-4.53;47.42
69737;BME280;64476;55.004;73.342;2023-02-04T01:28:29;101808.75;;;-4.57;47.89
69737;BME280;64476;55.004;73.342;2023-02-04T01:31:30;101726.69;;;-5.26;47.78
69737;BME280;64476;55.004;73.342;2023-02-04T01:34:39;101784.19;;;-4.76;47.40
69737;BME280;64476;55.004;73.342;2023-02-04T01:38:13;101790.16;;;-4.77;47.83
69737;BME280;64476;55.004;73.342;2023-02-04T01:41:16;101768.13;;;-4.89;47.73
69737;BME280;64476;55.004;73.342;2023-02-04T01:44:28;101841.00;;;-4.50;47.39
69737;BME280;64476;55.004;73.342;2023-02-04T01:47:31;101774.03;;;-4.79;47.85
69737;BME280;64476;55.004;73.342;2023-02-04T01:50:33;101824.03;;;-4.52;47.99
69737;BME280;64476;55.004;73.342;2023-02-04T01:53:36;101785.06;;;-4.77;47.96
69737;BME280;64476;55.004;73.342;2023-02-04T01:56:48;101855.38;;;-4.35;48.08
69737;BME280;64476;55.004;73.342;2023-02-04T02:03:37;101843.56;;;-4.51;47.40
69737;BME280;64476;55.004;73.342;2023-02-04T02:06:54;101848.66;;;-4.53;47.57
69737;BME280;64476;55.004;73.342;2023-02-04T02:09:57;101831.72;;;-4.60;47.47
69737;BME280;64476;55.004;73.342;2023-02-04T02:13:12;101856.28;;;-4.45;47.56
69737;BME280;64476;55.004;73.342;2023-02-04T02:19:48;101838.56;;;-4.77;47.66
69737;BME280;64476;55.004;73.342;2023-02-04T02:26:18;101846.25;;;-4.97;47.74
69737;BME280;64476;55.004;73.342;2023-02-04T02:30:06;101741.19;;;-5.57;48.00
69737;BME280;64476;55.004;73.342;2023-02-04T02:33:11;101856.47;;;-4.90;47.83
69737;BME280;64476;55.004;73.342;2023-02-04T02:36:15;101858.13;;;-4.90;47.69
69737;BME280;64476;55.004;73.342;2023-02-04T02:39:23;101800.50;;;-5.31;47.90
69737;BME280;64476;55.004;73.342;2023-02-04T02:42:25;101869.19;;;-4.94;48.17
69737;BME280;64476;55.004;73.342;2023-02-04T02:45:38;101781.06;;;-5.60;48.14
69737;BME280;64476;55.004;73.342;2023-02-04T02:52:25;101712.44;;;-6.13;47.87
69737;BME280;64476;55.004;73.342;2023-02-04T02:55:37;101831.06;;;-5.39;48.20
69737;BME280;64476;55.004;73.342;2023-02-04T02:58:39;101869.19;;;-5.02;47.93
69737;BME280;64476;55.004;73.342;2023-02-04T03:01:41;101873.44;;;-4.99;48.24
69737;BME280;64476;55.004;73.342;2023-02-04T03:04:55;101804.81;;;-5.48;47.97
69737;BME280;64476;55.004;73.342;2023-02-04T03:08:03;101837.84;;;-5.31;48.22
69737;BME280;64476;55.004;73.342;2023-02-04T03:11:05;101792.91;;;-5.57;48.18
69737;BME280;64476;55.004;73.342;2023-02-04T03:14:12;101842.94;;;-5.31;47.95
69737;BME280;64476;55.004;73.342;2023-02-04T03:17:13;101848.03;;;-5.22;48.14
69737;BME280;64476;55.004;73.342;2023-02-04T03:20:16;101881.91;;;-4.94;47.97
69737;BME280;64476;55.004;73.342;2023-02-04T03:23:28;101883.63;;;-4.99;48.34
69737;BME280;64476;55.004;73.342;2023-02-04T03:26:30;101870.06;;;-5.11;47.90
69737;BME280;64476;55.004;73.342;2023-02-04T03:32:45;101886.22;;;-5.12;47.79
69737;BME280;64476;55.004;73.342;2023-02-04T03:35:57;101888.75;;;-5.16;47.70
69737;BME280;64476;55.004;73.342;2023-02-04T03:39:00;101881.97;;;-5.23;47.83
69737;BME280;64476;55.004;73.342;2023-02-04T03:42:02;101881.97;;;-5.32;48.23
69737;BME280;64476;55.004;73.342;2023-02-04T03:45:04;101852.31;;;-5.60;48.14
69737;BME280;64476;55.004;73.342;2023-02-04T03:48:06;101831.09;;;-5.74;48.16
69737;BME280;64476;55.004;73.342;2023-02-04T03:51:07;101901.50;;;-5.35;47.73
69737;BME280;64476;55.004;73.342;2023-02-04T03:54:09;101893.88;;;-5.44;48.63
69737;BME280;64476;55.004;73.342;2023-02-04T03:57:11;101887.09;;;-5.48;48.43
69737;BME280;64476;55.004;73.342;2023-02-04T04:00:18;101909.13;;;-5.42;48.59
69737;BME280;64476;55.004;73.342;2023-02-04T04:03:20;101908.28;;;-5.43;48.83
69737;BME280;64476;55.004;73.342;2023-02-04T04:06:22;101921.00;;;-5.30;48.76
69737;BME280;64476;55.004;73.342;2023-02-04T04:09:23;101838.72;;;-5.77;48.17
69737;BME280;64476;55.004;73.342;2023-02-04T04:12:25;101919.31;;;-5.38;48.28
69737;BME280;64476;55.004;73.342;2023-02-04T04:15:27;101927.81;;;-5.29;48.61
69737;BME280;64476;55.004;73.342;2023-02-04T04:18:38;101939.66;;;-5.08;48.30
69737;BME280;64476;55.004;73.342;2023-02-04T04:21:40;101939.66;;;-5.01;48.33
69737;BME280;64476;55.004;73.342;2023-02-04T04:24:42;101925.25;;;-5.00;48.53
69737;BME280;64476;55.004;73.342;2023-02-04T04:27:47;101862.47;;;-5.46;48.01
69737;BME280;64476;55.004;73.342;2023-02-04T04:30:53;101946.47;;;-4.89;47.83
69737;BME280;64476;55.004;73.342;2023-02-04T04:33:55;101958.31;;;-4.67;47.92
69737;BME280;64476;55.004;73.342;2023-02-04T04:36:57;101960.03;;;-4.75;47.96
69737;BME280;64476;55.004;73.342;2023-02-04T04:40:04;101931.16;;;-5.04;48.21
69737;BME280;64476;55.004;73.342;2023-02-04T04:43:06;101926.97;;;-5.12;47.84
69737;BME280;64476;55.004;73.342;2023-02-04T04:46:10;101978.72;;;-4.91;48.08
69737;BME280;64476;55.004;73.342;2023-02-04T04:49:47;101953.25;;;-5.05;48.36
69737;BME280;64476;55.004;73.342;2023-02-04T04:52:53;101982.97;;;-4.99;48.42
69737;BME280;64476;55.004;73.342;2023-02-04T04:55:55;101973.63;;;-4.96;48.61
69737;BME280;64476;55.004;73.342;2023-02-04T04:58:57;101976.19;;;-4.91;48.70
69737;BME280;64476;55.004;73.342;2023-02-04T05:02:09;102003.31;;;-4.69;48.20
69737;BME280;64476;55.004;73.342;2023-02-04T05:05:16;101999.06;;;-4.56;48.64
69737;BME280;64476;55.004;73.342;2023-02-04T05:08:23;101988.88;;;-4.51;48.26
69737;BME280;64476;55.004;73.342;2023-02-04T05:11:36;101987.97;;;-4.43;48.62
69737;BME280;64476;55.004;73.342;2023-02-04T05:14:37;101997.31;;;-4.26;48.54
69737;BME280;64476;55.004;73.342;2023-02-04T05:17:39;101994.72;;;-4.17;48.03
69737;BME280;64476;55.004;73.342;2023-02-04T05:20:40;101982.78;;;-4.17;48.32
69737;BME280;64476;55.004;73.342;2023-02-04T05:23:42;101942.06;;;-4.30;48.38
69737;BME280;64476;55.004;73.342;2023-02-04T05:26:49;101936.09;;;-4.23;47.82
69737;BME280;64476;55.004;73.342;2023-02-04T05:29:50;101990.34;;;-3.89;47.30
69737;BME280;64476;55.004;73.342;2023-02-04T05:33:00;101990.38;;;-3.95;47.82
69737;BME280;64476;55.004;73.342;2023-02-04T05:36:02;101989.53;;;-3.93;47.87
69737;BME280;64476;55.004;73.342;2023-02-04T05:39:06;101961.47;;;-4.02;47.82
69737;BME280;64476;55.004;73.342;2023-02-04T05:42:14;101987.75;;;-3.80;47.44
69737;BME280;64476;55.004;73.342;2023-02-04T05:45:16;101980.94;;;-3.75;47.72
69737;BME280;64476;55.004;73.342;2023-02-04T05:48:20;101993.63;;;-3.66;47.58
69737;BME280;64476;55.004;73.342;2023-02-04T05:51:22;101947.00;;;-3.95;47.21
69737;BME280;64476;55.004;73.342;2023-02-04T05:54:23;101920.72;;;-4.08;47.53
69737;BME280;64476;55.004;73.342;2023-02-04T05:57:26;101971.56;;;-3.71;47.30
69737;BME280;64476;55.004;73.342;2023-02-04T06:00:27;101992.78;;;-3.63;47.13
69737;BME280;64476;55.004;73.342;2023-02-04T06:03:34;101913.16;;;-4.26;47.13
69737;BME280;64476;55.004;73.342;2023-02-04T06:06:41;101962.31;;;-3.95;47.55
69737;BME280;64476;55.004;73.342;2023-02-04T06:09:52;101948.66;;;-3.88;47.01
69737;BME280;64476;55.004;73.342;2023-02-04T06:12:58;101939.25;;;-3.78;47.16
69737;BME280;64476;55.004;73.342;2023-02-04T06:16:00;101965.50;;;-3.58;46.83
69737;BME280;64476;55.004;73.342;2023-02-04T06:19:02;101984.16;;;-3.47;46.96
69737;BME280;64476;55.004;73.342;2023-02-04T06:22:04;101948.53;;;-3.63;47.16
69737;BME280;64476;55.004;73.342;2023-02-04T06:25:17;101991.69;;;-3.28;47.10
69737;BME280;64476;55.004;73.342;2023-02-04T06:28:19;101928.03;;;-3.53;46.96
69737;BME280;64476;55.004;73.342;2023-02-04T06:31:20;101976.38;;;-3.27;46.67
69737;BME280;64476;55.004;73.342;2023-02-04T06:34:22;101914.41;;;-3.55;46.32
69737;BME280;64476;55.004;73.342;2023-02-04T06:37:23;101979.63;;;-3.08;46.52
69737;BME280;64476;55.004;73.342;2023-02-04T06:40:25;101895.63;;;-3.46;46.80
69737;BME280;64476;55.004;73.342;2023-02-04T06:43:27;101994.72;;;-2.82;46.63
69737;BME280;64476;55.004;73.342;2023-02-04T06:46:38;101974.31;;;-2.86;46.48
69737;BME280;64476;55.004;73.342;2023-02-04T06:49:40;101912.44;;;-3.19;46.52
69737;BME280;64476;55.004;73.342;2023-02-04T06:52:42;101990.31;;;-2.64;46.48
69737;BME280;64476;55.004;73.342;2023-02-04T06:55:44;101991.03;;;-2.50;46.56
69737;BME280;64476;55.004;73.342;2023-02-04T06:58:45;101924.84;;;-2.81;46.32
69737;BME280;64476;55.004;73.342;2023-02-04T07:01:47;101937.53;;;-2.69;46.36
69737;BME280;64476;55.004;73.342;2023-02-04T07:04:58;101986.63;;;-2.37;46.00
69737;BME280;64476;55.004;73.342;2023-02-04T07:08:10;101921.38;;;-2.72;46.56
69737;BME280;64476;55.004;73.342;2023-02-04T07:11:15;102006.59;;;-1.95;46.30
69737;BME280;64476;55.004;73.342;2023-02-04T07:14:48;102012.41;;;-1.82;45.98
69737;BME280;64476;55.004;73.342;2023-02-04T07:17:50;102004.53;;;-1.68;46.17
69737;BME280;64476;55.004;73.342;2023-02-04T07:20:57;102002.56;;;-1.49;46.22
69737;BME280;64476;55.004;73.342;2023-02-04T07:24:06;101998.19;;;-1.41;45.93
69737;BME280;64476;55.004;73.342;2023-02-04T07:27:08;101992.19;;;-1.38;45.50
69737;BME280;64476;55.004;73.342;2023-02-04T07:30:11;102008.44;;;-1.41;45.83
69737;BME280;64476;55.004;73.342;2023-02-04T07:33:13;101985.63;;;-1.59;45.98
69737;BME280;64476;55.004;73.342;2023-02-04T07:36:17;102002.56;;;-1.49;46.17
69737;BME280;64476;55.004;73.342;2023-02-04T07:39:28;101944.13;;;-1.81;45.45
69737;BME280;64476;55.004;73.342;2023-02-04T07:42:30;101983.94;;;-1.60;45.46
69737;BME280;64476;55.004;73.342;2023-02-04T07:45:40;101967.13;;;-1.78;45.36
69737;BME280;64476;55.004;73.342;2023-02-04T07:48:41;101984.03;;;-1.66;45.00
69737;BME280;64476;55.004;73.342;2023-02-04T07:51:43;101984.03;;;-1.66;45.51
69737;BME280;64476;55.004;73.342;2023-02-04T07:54:44;101988.38;;;-1.72;45.43
69737;BME280;64476;55.004;73.342;2023-02-04T07:57:51;101941.94;;;-2.10;45.52
69737;BME280;64476;55.004;73.342;2023-02-04T08:00:53;101942.84;;;-2.14;46.07
69737;BME280;64476;55.004;73.342;2023-02-04T08:03:55;101996.44;;;-2.01;45.87
69737;BME280;64476;55.004;73.342;2023-02-04T08:07:03;102008.38;;;-2.01;45.81
69737;BME280;64476;55.004;73.342;2023-02-04T08:10:07;101955.09;;;-2.41;45.88
69737;BME280;64476;55.004;73.342;2023-02-04T08:13:09;102004.25;;;-2.13;45.93
69737;BME280;64476;55.004;73.342;2023-02-04T08:16:11;101996.69;;;-2.24;46.08
69737;BME280;64476;55.004;73.342;2023-02-04T08:19:17;101957.75;;;-2.49;46.17
69737;BME280;64476;55.004;73.342;2023-02-04T08:22:21;101993.44;;;-2.38;46.42
69737;BME280;64476;55.004;73.342;2023-02-04T08:25:35;101908.78;;;-2.95;46.21
69737;BME280;64476;55.004;73.342;2023-02-04T08:28:37;102012.16;;;-2.34;46.38
69737;BME280;64476;55.004;73.342;2023-02-04T08:31:39;102010.56;;;-2.45;46.49
69737;BME280;64476;55.004;73.342;2023-02-04T08:34:40;101932.63;;;-2.93;46.31
69737;BME280;64476;55.004;73.342;2023-02-04T08:37:42;101967.41;;;-2.77;46.93
69737;BME280;64476;55.004;73.342;2023-02-04T08:40:44;101986.88;;;-2.63;46.78
69737;BME280;64476;55.004;73.342;2023-02-04T08:43:45;101994.44;;;-2.53;46.93
69737;BME280;64476;55.004;73.342;2023-02-04T08:46:56;102009.56;;;-2.28;46.79
69737;BME280;64476;55.004;73.342;2023-02-04T08:49:57;102012.78;;;-2.12;46.70
69737;BME280;64476;55.004;73.342;2023-02-04T08:52:59;102011.81;;;-2.04;46.55
69737;BME280;64476;55.004;73.342;2023-02-04T08:59:36;101996.06;;;-1.72;45.82
69737;BME280;64476;55.004;73.342;2023-02-04T09:02:38;102004.25;;;-1.48;45.79
69737;BME280;64476;55.004;73.342;2023-02-04T09:05:43;101953.19;;;-1.59;45.31
69737;BME280;64476;55.004;73.342;2023-02-04T09:08:53;101954.75;;;-1.49;45.33
69737;BME280;64476;55.004;73.342;2023-02-04T09:11:54;101904.69;;;-1.70;45.15
69737;BME280;64476;55.004;73.342;2023-02-04T09:14:56;101956.06;;;-1.23;44.80
69737;BME280;64476;55.004;73.342;2023-02-04T09:17:58;101995.63;;;-0.87;44.61
69737;BME280;64476;55.004;73.342;2023-02-04T09:21:16;101970.03;;;-0.90;44.46
69737;BME280;64476;55.004;73.342;2023-02-04T09:24:18;101937.03;;;-1.08;44.17
69737;BME280;64476;55.004;73.342;2023-02-04T09:27:19;101980.06;;;-0.78;44.18
69737;BME280;64476;55.004;73.342;2023-02-04T09:30:53;101986.91;;;-0.77;44.23
69737;BME280;64476;55.004;73.342;2023-02-04T09:33:55;101948.91;;;-1.03;44.31
69737;BME280;64476;55.004;73.342;2023-02-04T09:36:56;101995.63;;;-0.87;44.34
69737;BME280;64476;55.004;73.342;2023-02-04T09:40:02;101977.22;;;-1.10;44.34
69737;BME280;64476;55.004;73.342;2023-02-04T09:43:04;101991.72;;;-1.09;44.50
69737;BME280;64476;55.004;73.342;2023-02-04T09:46:18;101971.44;;;-1.23;44.43
69737;BME280;64476;55.004;73.342;2023-02-04T09:49:32;101936.72;;;-1.44;44.67
69737;BME280;64476;55.004;73.342;2023-02-04T09:52:43;101996.91;;;-1.12;44.54
69737;BME280;64476;55.004;73.342;2023-02-04T09:55:49;101996.94;;;-1.14;44.78
69737;BME280;64476;55.004;73.342;2023-02-04T09:58:55;101940.13;;;-1.42;44.42
69737;BME280;64476;55.004;73.342;2023-02-04T10:02:00;101985.00;;;-1.16;44.86
69737;BME280;64476;55.004;73.342;2023-02-04T10:05:18;101937.50;;;-1.37;44.89
69737;BME280;64476;55.004;73.342;2023-02-04T10:08:35;101925.72;;;-1.49;45.02
69737;BME280;64476;55.004;73.342;2023-02-04T10:11:38;101929.94;;;-1.45;44.83
69737;BME280;64476;55.004;73.342;2023-02-04T10:14:40;101974.78;;;-1.19;44.80
69737;BME280;64476;55.004;73.342;2023-02-04T10:17:45;101957.03;;;-1.30;44.82
69737;BME280;64476;55.004;73.342;2023-02-04T10:20:48;101923.19;;;-1.52;44.82
69737;BME280;64476;55.004;73.342;2023-02-04T10:24:04;101914.03;;;-1.65;44.90
69737;BME280;64476;55.004;73.342;2023-02-04T10:27:10;101984.38;;;-1.31;45.03
69737;BME280;64476;55.004;73.342;2023-02-04T10:30:19;101930.25;;;-1.66;45.03
69737;BME280;64476;55.004;73.342;2023-02-04T10:33:26;101952.31;;;-1.56;45.00
69737;BME280;64476;55.004;73.342;2023-02-04T10:36:30;101916.00;;;-1.84;45.20
69737;BME280;64476;55.004;73.342;2023-02-04T10:39:41;101976.19;;;-1.54;45.40
69737;BME280;64476;55.004;73.342;2023-02-04T10:47:01;101999.94;;;-1.44;45.36
69737;BME280;64476;55.004;73.342;2023-02-04T10:50:21;101993.38;;;-1.64;45.73
69737;BME280;64476;55.004;73.342;2023-02-04T10:53:24;102006.06;;;-1.55;45.73
69737;BME280;64476;55.004;73.342;2023-02-04T10:56:44;102003.72;;;-1.68;45.77
69737;BME280;64476;55.004;73.342;2023-02-04T10:59:47;101968.13;;;-1.91;46.02
69737;BME280;64476;55.004;73.342;2023-02-04T11:03:10;101942.88;;;-2.16;46.29
69737;BME280;64476;55.004;73.342;2023-02-04T11:06:18;101957.28;;;-2.09;46.41
69737;BME280;64476;55.004;73.342;2023-02-04T11:09:21;102021.72;;;-1.78;46.24
69737;BME280;64476;55.004;73.342;2023-02-04T11:18:54;101966.63;;;-2.83;46.43
69737;BME280;64476;55.004;73.342;2023-02-04T11:25:37;102009.28;;;-2.90;46.64
69737;BME280;64476;55.004;73.342;2023-02-04T11:28:50;102026.28;;;-2.87;47.29
69737;BME280;64476;55.004;73.342;2023-02-04T11:31:59;102033.19;;;-2.94;47.25
69737;BME280;64476;55.004;73.342;2023-02-04T11:35:20;102032.34;;;-2.99;47.22
69737;BME280;64476;55.004;73.342;2023-02-04T11:38:26;102028.09;;;-3.00;47.40
69737;BME280;64476;55.004;73.342;2023-02-04T11:41:29;101976.41;;;-3.31;47.38
69737;BME280;64476;55.004;73.342;2023-02-04T11:44:32;101980.63;;;-3.32;47.12
69737;BME280;64476;55.004;73.342;2023-02-04T11:47:35;101969.66;;;-3.42;47.42
69737;BME280;64476;55.004;73.342;2023-02-04T11:50:55;102027.34;;;-3.14;47.76
69737;BME280;64476;55.004;73.342;2023-02-04T11:53:57;102007.00;;;-3.27;47.75
69737;BME280;64476;55.004;73.342;2023-02-04T11:56:59;101963.00;;;-3.66;48.12
69737;BME280;64476;55.004;73.342;2023-02-04T12:00:01;102041.06;;;-3.23;48.10
69737;BME280;64476;55.004;73.342;2023-02-04T12:03:28;102030.94;;;-3.38;48.12
69737;BME280;64476;55.004;73.342;2023-02-04T12:06:41;101973.25;;;-3.76;48.21
69737;BME280;64476;55.004;73.342;2023-02-04T12:09:52;102033.53;;;-3.48;48.14
69737;BME280;64476;55.004;73.342;2023-02-04T12:12:55;102037.81;;;-3.50;48.41
69737;BME280;64476;55.004;73.342;2023-02-04T12:16:05;101972.53;;;-3.94;48.55
69737;BME280;64476;55.004;73.342;2023-02-04T12:19:07;102023.38;;;-3.65;48.48
69737;BME280;64476;55.004;73.342;2023-02-04T12:22:08;102020.03;;;-3.71;48.55
69737;BME280;64476;55.004;73.342;2023-02-04T12:25:16;102031.06;;;-3.66;48.51
69737;BME280;64476;55.004;73.342;2023-02-04T12:28:19;101997.16;;;-3.88;48.69
69737;BME280;64476;55.004;73.342;2023-02-04T12:31:34;101955.59;;;-4.11;48.54
69737;BME280;64476;55.004;73.342;2023-02-04T12:34:36;102019.19;;;-3.76;48.93
69737;BME280;64476;55.004;73.342;2023-02-04T12:37:38;102026.88;;;-3.79;48.69
69737;BME280;64476;55.004;73.342;2023-02-04T12:40:39;102042.19;;;-3.78;48.63
69737;BME280;64476;55.004;73.342;2023-02-04T12:43:41;102038.84;;;-3.92;48.54
69737;BME280;64476;55.004;73.342;2023-02-04T12:47:14;102054.16;;;-3.94;49.11
69737;BME280;64476;55.004;73.342;2023-02-04T12:50:25;102061.00;;;-4.08;48.89
69737;BME280;64476;55.004;73.342;2023-02-04T12:53:31;102038.09;;;-4.39;49.39
69737;BME280;64476;55.004;73.342;2023-02-04T12:56:33;101999.06;;;-4.61;49.84
69737;BME280;64476;55.004;73.342;2023-02-04T12:59:35;102045.75;;;-4.29;49.36
69737;BME280;64476;55.004;73.342;2023-02-04T13:02:41;102008.44;;;-4.59;49.79
69737;BME280;64476;55.004;73.342;2023-02-04T13:05:54;102000.78;;;-4.73;49.74
69737;BME280;64476;55.004;73.342;2023-02-04T13:08:56;102001.63;;;-4.76;49.68
69737;BME280;64476;55.004;73.342;2023-02-04T13:12:03;102010.13;;;-4.75;49.46
69737;BME280;64476;55.004;73.342;2023-02-04T13:15:15;102057.69;;;-4.51;49.61
69737;BME280;64476;55.004;73.342;2023-02-04T13:18:23;102049.22;;;-4.59;50.07
69737;BME280;64476;55.004;73.342;2023-02-04T13:21:32;102042.41;;;-4.67;49.45
69737;BME280;64476;55.004;73.342;2023-02-04T13:24:38;102012.69;;;-4.84;49.83
69737;BME280;64476;55.004;73.342;2023-02-04T13:27:40;102031.38;;;-4.76;49.88
69737;BME280;64476;55.004;73.342;2023-02-04T13:30:47;102000.81;;;-4.95;50.14
69737;BME280;64476;55.004;73.342;2023-02-04T13:33:48;101967.69;;;-5.13;50.13
69737;BME280;64476;55.004;73.342;2023-02-04T13:36:50;102028.81;;;-4.81;49.75
69737;BME280;64476;55.004;73.342;2023-02-04T13:39:52;101982.13;;;-5.20;50.14
69737;BME280;64476;55.004;73.342;2023-02-04T13:42:59;102050.03;;;-4.76;50.44
69737;BME280;64476;55.004;73.342;2023-02-04T13:46:01;102022.03;;;-4.94;50.03
69737;BME280;64476;55.004;73.342;2023-02-04T13:49:04;102052.59;;;-4.83;50.39
69737;BME280;64476;55.004;73.342;2023-02-04T13:52:05;102015.22;;;-5.09;50.12
69737;BME280;64476;55.004;73.342;2023-02-04T13:55:17;101999.94;;;-5.21;49.92
69737;BME280;64476;55.004;73.342;2023-02-04T13:58:29;102031.38;;;-5.07;50.27
69737;BME280;64476;55.004;73.342;2023-02-04T14:01:37;101999.09;;;-5.32;50.02
69737;BME280;64476;55.004;73.342;2023-02-04T14:04:44;102061.94;;;-5.02;50.32
69737;BME280;64476;55.004;73.342;2023-02-04T14:07:46;102064.50;;;-5.04;50.06
69737;BME280;64476;55.004;73.342;2023-02-04T14:10:48;101960.00;;;-5.65;50.26
69737;BME280;64476;55.004;73.342;2023-02-04T14:14:00;102010.97;;;-5.36;50.08
69737;BME280;64476;55.004;73.342;2023-02-04T14:17:02;102044.94;;;-5.17;50.41
69737;BME280;64476;55.004;73.342;2023-02-04T14:20:16;102020.28;;;-5.35;50.51
69737;BME280;64476;55.004;73.342;2023-02-04T14:23:18;102065.31;;;-5.13;50.50
69737;BME280;64476;55.004;73.342;2023-02-04T14:26:33;102031.34;;;-5.30;50.44
69737;BME280;64476;55.004;73.342;2023-02-04T14:29:35;102058.50;;;-5.17;50.70
69737;BME280;64476;55.004;73.342;2023-02-04T14:32:41;102071.25;;;-5.18;50.79
69737;BME280;64476;55.004;73.342;2023-02-04T14:35:52;102083.97;;;-5.12;50.60
69737;BME280;64476;55.004;73.342;2023-02-04T14:38:54;102044.00;;;-5.50;50.90
69737;BME280;64476;55.004;73.342;2023-02-04T14:41:56;102074.59;;;-5.36;51.05
69737;BME280;64476;55.004;73.342;2023-02-04T14:45:17;102077.13;;;-5.47;51.19
69737;BME280;64476;55.004;73.342;2023-02-04T14:48:31;102095.81;;;-5.45;51.62
69737;BME280;64476;55.004;73.342;2023-02-04T14:51:33;102096.63;;;-5.52;51.58
69737;BME280;64476;55.004;73.342;2023-02-04T14:54:35;102090.69;;;-5.48;51.03
69737;BME280;64476;55.004;73.342;2023-02-04T14:57:39;102047.34;;;-5.74;51.26
69737;BME280;64476;55.004;73.342;2023-02-04T15:00:42;102076.22;;;-5.63;51.15
69737;BME280;64476;55.004;73.342;2023-02-04T15:03:43;102061.75;;;-5.71;51.20
69737;BME280;64476;55.004;73.342;2023-02-04T15:06:45;102089.78;;;-5.61;51.73
69737;BME280;64476;55.004;73.342;2023-02-04T15:09:56;102031.16;;;-5.97;51.62
69737;BME280;64476;55.004;73.342;2023-02-04T15:13:10;102007.38;;;-6.10;51.84
69737;BME280;64476;55.004;73.342;2023-02-04T15:16:16;102070.25;;;-5.69;51.39
69737;BME280;64476;55.004;73.342;2023-02-04T15:19:18;102086.41;;;-5.56;51.74
69737;BME280;64476;55.004;73.342;2023-02-04T15:22:20;102038.03;;;-5.69;51.46
69737;BME280;64476;55.004;73.342;2023-02-04T15:25:22;102060.97;;;-5.49;51.44
69737;BME280;64476;55.004;73.342;2023-02-04T15:28:35;102076.31;;;-5.30;51.12
69737;BME280;64476;55.004;73.342;2023-02-04T15:31:36;102055.91;;;-5.43;50.91
69737;BME280;64476;55.004;73.342;2023-02-04T15:34:38;102070.34;;;-5.43;51.10
69737;BME280;64476;55.004;73.342;2023-02-04T15:37:46;102058.44;;;-5.60;51.27
69737;BME280;64476;55.004;73.342;2023-02-04T15:40:48;102049.06;;;-5.65;51.17
69737;BME280;64476;55.004;73.342;2023-02-04T15:43:49;102071.13;;;-5.63;51.44
69737;BME280;64476;55.004;73.342;2023-02-04T15:46:56;102069.38;;;-5.74;51.06
69737;BME280;64476;55.004;73.342;2023-02-04T15:49:57;102072.75;;;-5.75;51.28
69737;BME280;64476;55.004;73.342;2023-02-04T15:52:59;102069.31;;;-5.99;51.72
69737;BME280;64476;55.004;73.342;2023-02-04T15:56:10;102072.63;;;-6.12;51.56
69737;BME280;64476;55.004;73.342;2023-02-04T15:59:12;102075.16;;;-6.18;51.56
69737;BME280;64476;55.004;73.342;2023-02-04T16:02:15;102061.50;;;-6.29;51.30
69737;BME280;64476;55.004;73.342;2023-02-04T16:05:17;102082.72;;;-6.23;51.71
69737;BME280;64476;55.004;73.342;2023-02-04T16:08:19;102066.50;;;-6.42;51.52
69737;BME280;64476;55.004;73.342;2023-02-04T16:11:20;102068.13;;;-6.48;51.83
69737;BME280;64476;55.004;73.342;2023-02-04T16:14:22;102023.00;;;-6.86;52.07
69737;BME280;64476;55.004;73.342;2023-02-04T16:17:23;102028.13;;;-6.80;51.46
69737;BME280;64476;55.004;73.342;2023-02-04T16:20:25;102069.78;;;-6.57;51.29
69737;BME280;64476;55.004;73.342;2023-02-04T16:23:26;102049.28;;;-6.79;51.02
69737;BME280;64476;55.004;73.342;2023-02-04T16:26:33;102069.59;;;-6.78;50.99
69737;BME280;64476;55.004;73.342;2023-02-04T16:29:35;102097.56;;;-6.75;51.28
69737;BME280;64476;55.004;73.342;2023-02-04T16:32:37;102078.84;;;-6.88;50.56
69737;BME280;64476;55.004;73.342;2023-02-04T16:36:04;102082.94;;;-7.03;50.34